Time;durP1;ratioP1;P1;durP2;ratioP2;P2;SDS_P1;SDS_P2;PMS_P1;PMS_P2;Temp;Humidity;BMP_temperature;BMP_pressure;BME280_temperature;BME280_humidity;BME280_pressure;Samples;Min_cycle;Max_cycle;Signal;HPM_P1;HPM_P2
2021/07/29 02:43:00;;;;;;;;;;;;;;;;;;;;;
2021/07/29 03:08:31;;;;;;;;;;;;;;;;;;;;;
2021/07/29 03:15:58;;;;;;;;;;;;;;;;;;;;;
2021/07/29 04:40:25;;;;;;;;;;;;;;;;;;;;;
2021/07/29 04:43:10;;;;;;;24.90;18.85;;;;;;;23.70;100.00;100624.05;1570475;88;21108;-91
2021/07/29 04:46:06;;;;;;;30.52;20.08;;;;;;;23.76;100.00;100621.91;1545352;90;21268;-92
2021/07/29 04:48:59;;;;;;;22.40;18.75;;;;;;;23.82;100.00;100615.80;1552829;90;21147;-89
2021/07/29 04:51:30;;;;;;;27.37;19.52;;;;;;;23.91;100.00;100613.27;1567250;89;21120;-87
2021/07/29 04:54:19;;;;;;;23.47;19.12;;;;;;;24.02;100.00;100606.53;1565456;89;21192;-87
2021/07/29 04:56:47;;;;;;;24.27;17.98;;;;;;;24.09;100.00;100602.03;1583276;82;21187;-88
2021/07/29 04:59:16;;;;;;;28.90;19.50;;;;;;;24.17;100.00;100598.33;1711782;82;21037;-92
2021/07/29 05:01:49;;;;;;;25.57;20.02;;;;;;;24.25;100.00;100595.98;1711236;82;21603;-92
2021/07/29 05:21:01;;;;;;;26.02;20.32;;;;;;;24.58;100.00;100601.23;1375374;101;21508;-89
2021/07/29 05:27:16;;;;;;;28.38;21.02;;;;;;;24.68;100.00;100594.16;1260910;110;21238;-89
2021/07/29 05:29:51;;;;;;;27.55;22.13;;;;;;;24.76;100.00;100594.98;1298772;105;21168;-90
2021/07/29 05:32:21;;;;;;;29.77;21.27;;;;;;;24.82;100.00;100586.95;1310409;102;21207;-84
2021/07/29 05:34:59;;;;;;;25.10;21.00;;;;;;;24.89;100.00;100590.41;1391551;93;21606;-88
2021/07/29 05:37:29;;;;;;;29.20;22.02;;;;;;;24.97;100.00;100581.88;1550376;89;21301;-89
2021/07/29 05:39:58;;;;;;;25.72;20.20;;;;;;;25.06;100.00;100591.26;1555643;89;21188;-91
2021/07/29 05:42:27;;;;;;;48.35;22.40;;;;;;;25.15;100.00;100589.19;1577863;89;21266;-85
2021/07/29 05:45:27;;;;;;;;;;;;;;;;;;;;;
2021/07/29 05:48:56;;;;;;;;;;;;;;;;;;;;;
2021/07/29 05:55:46;;;;;;;27.62;20.23;;;;;;;25.53;100.00;100585.70;1439272;97;21154;-86
2021/07/29 06:04:42;;;;;;;25.65;20.45;;;;;;;25.82;100.00;100584.77;1448059;96;21166;-92
2021/07/29 06:15:10;;;;;;;100.97;22.15;;;;;;;26.08;100.00;100577.61;1369950;103;21230;-84
2021/07/29 06:38:59;;;;;;;19.90;17.15;;;;;;;26.62;100.00;100559.19;1361135;103;21296;-86
2021/07/29 07:20:28;;;;;;;24.60;16.97;;;;;;;27.88;100.00;100538.11;1335247;104;21196;-87
2021/07/29 07:22:54;;;;;;;25.23;16.57;;;;;;;28.01;100.00;100540.00;1483260;94;21062;-89
2021/07/29 07:25:22;;;;;;;21.55;15.93;;;;;;;28.11;100.00;100538.64;1576314;84;21204;-87
2021/07/29 07:27:51;;;;;;;21.37;16.57;;;;;;;28.19;100.00;100535.61;1657456;85;22007;-87
2021/07/29 07:30:18;;;;;;;19.62;16.02;;;;;;;28.28;100.00;100541.42;1652872;86;21117;-88
2021/07/29 07:32:45;;;;;;;21.80;16.60;;;;;;;28.39;100.00;100527.73;1647853;86;21082;-85
2021/07/29 07:35:12;;;;;;;24.02;17.05;;;;;;;28.51;100.00;100531.71;1722898;82;21666;-86
2021/07/29 07:37:42;;;;;;;23.27;17.70;;;;;;;28.63;100.00;100526.61;1712773;82;21413;-85
2021/07/29 07:40:10;;;;;;;24.80;18.15;;;;;;;28.75;100.00;100523.09;1735493;81;21046;-85
2021/07/29 07:42:38;;;;;;;23.45;17.12;;;;;;;28.85;100.00;100522.46;1738743;81;21014;-84
2021/07/29 07:45:05;;;;;;;22.13;17.12;;;;;;;28.95;100.00;100523.48;1734545;81;21014;-83
2021/07/29 07:47:35;;;;;;;21.73;16.15;;;;;;;29.03;100.00;100525.48;1738396;81;21014;-86
2021/07/29 07:50:03;;;;;;;21.50;15.93;;;;;;;29.13;100.00;100522.97;1738691;82;21061;-86
2021/07/29 07:52:30;;;;;;;26.55;15.50;;;;;;;29.25;100.00;100526.92;1738780;81;20948;-87
2021/07/29 07:54:58;;;;;;;17.82;15.55;;;;;;;29.34;100.00;100528.18;1714185;82;21036;-87
2021/07/29 07:57:25;;;;;;;17.32;14.50;;;;;;;29.43;100.00;100524.05;1706924;82;21609;-88
2021/07/29 07:59:56;;;;;;;22.90;15.10;;;;;;;29.53;100.00;100523.38;1704946;82;21111;-84
2021/07/29 08:02:21;;;;;;;21.73;15.90;;;;;;;29.63;100.00;100520.58;1680224;82;21150;-88
2021/07/29 08:04:48;;;;;;;20.52;16.37;;;;;;;29.70;100.00;100526.59;1711909;82;21052;-88
2021/07/29 08:07:15;;;;;;;21.12;16.23;;;;;;;29.73;100.00;100524.22;1728919;82;20963;-86
2021/07/29 08:09:42;;;;;;;22.30;15.88;;;;;;;29.78;100.00;100510.61;1738668;81;21055;-86
2021/07/29 08:12:11;;;;;;;24.70;16.50;;;;;;;29.86;100.00;100518.25;1714082;81;21093;-84
2021/07/29 08:14:38;;;;;;;21.42;15.93;;;;;;;29.95;100.00;100514.63;1714107;82;21323;-86
2021/07/29 08:17:06;;;;;;;20.02;15.60;;;;;;;29.99;100.00;100517.11;1728196;82;21619;-84
2021/07/29 08:19:34;;;;;;;17.05;15.40;;;;;;;30.04;100.00;100511.80;1729241;81;21047;-84
2021/07/29 08:22:02;;;;;;;23.07;14.87;;;;;;;30.10;100.00;100501.95;1728722;82;20989;-89
2021/07/29 08:24:29;;;;;;;17.27;14.75;;;;;;;30.18;100.00;100506.89;1727685;81;21520;-90
2021/07/29 08:26:57;;;;;;;20.02;15.40;;;;;;;30.29;100.00;100505.14;1730551;81;21129;-87
2021/07/29 08:29:24;;;;;;;21.45;15.72;;;;;;;30.42;100.00;100501.27;1734518;82;21006;-85
2021/07/29 08:31:52;;;;;;;19.80;14.15;;;;;;;30.55;100.00;100496.87;1727519;81;21591;-86
2021/07/29 08:34:19;;;;;;;19.02;14.03;;;;;;;30.65;100.00;100492.13;1730386;81;21022;-86
2021/07/29 08:36:46;;;;;;;19.35;15.58;;;;;;;30.76;100.00;100489.84;1733659;81;21010;-87
2021/07/29 08:39:13;;;;;;;17.70;14.25;;;;;;;30.88;100.00;100492.91;1733139;81;21387;-88
2021/07/29 08:41:41;;;;;;;16.60;14.68;;;;;;;30.99;100.00;100483.86;1735108;82;21061;-83
2021/07/29 08:44:08;;;;;;;16.40;14.00;;;;;;;31.07;100.00;100496.84;1739914;81;21061;-88
2021/07/29 08:46:37;;;;;;;18.20;14.53;;;;;;;31.11;100.00;100497.99;1722332;81;21070;-86
2021/07/29 08:49:05;;;;;;;49.33;16.75;;;;;;;31.14;100.00;100499.36;1674023;84;21073;-86
2021/07/29 08:51:32;;;;;;;19.27;14.45;;;;;;;31.21;100.00;100507.22;1703487;82;21198;-88
2021/07/29 08:54:07;;;;;;;21.62;15.25;;;;;;;31.27;100.00;100499.46;1728704;82;21575;-88
2021/07/29 08:56:29;;;;;;;18.95;15.40;;;;;;;31.34;100.00;100498.70;1672026;85;21026;-85
2021/07/29 08:58:55;;;;;;;24.45;15.23;;;;;;;31.40;100.00;100501.70;1651583;85;21066;-88
2021/07/29 09:01:53;;;;;;;26.25;15.30;;;;;;;31.47;100.00;100500.95;1652527;85;21082;-90
2021/07/29 09:04:21;;;;;;;18.42;15.72;;;;;;;31.57;100.00;100502.09;1670924;85;21159;-86
2021/07/29 09:06:56;;;;;;;19.52;14.93;;;;;;;31.67;100.00;100499.50;1629527;86;20957;-86
2021/07/29 09:09:38;;;;;;;18.80;12.98;;;;;;;31.74;100.00;100499.25;1695496;81;21052;-84
2021/07/29 09:12:24;;;;;;;19.12;15.32;;;;;;;31.84;100.00;100496.62;1691753;83;21160;-85
2021/07/29 09:14:53;;;;;;;25.65;15.15;;;;;;;31.92;100.00;100490.75;1706576;82;21518;-86
2021/07/29 09:17:22;;;;;;;22.60;15.08;;;;;;;31.91;100.00;100495.06;1693410;82;21790;-85
2021/07/29 09:19:53;;;;;;;22.37;14.68;;;;;;;31.83;100.00;100490.17;1687299;83;21032;-88
2021/07/29 09:22:23;;;;;;;19.70;15.25;;;;;;;31.88;100.00;100488.84;1666890;84;21111;-86
2021/07/29 09:25:10;;;;;;;20.30;15.13;;;;;;;31.98;100.00;100492.94;1682422;83;21083;-85
2021/07/29 09:27:44;;;;;;;44.18;15.53;;;;;;;32.08;100.00;100486.27;1695847;82;21084;-86
2021/07/29 09:30:29;;;;;;;28.47;16.17;;;;;;;32.17;100.00;100481.72;1689704;83;21894;-84
2021/07/29 09:33:10;;;;;;;16.25;14.58;;;;;;;32.25;100.00;100482.56;1689769;84;21088;-87
2021/07/29 09:35:50;;;;;;;21.12;14.47;;;;;;;32.33;100.00;100479.36;1696983;83;21080;-84
2021/07/29 09:38:31;;;;;;;19.80;14.63;;;;;;;32.37;100.00;100477.77;1685127;82;21026;-88
2021/07/29 09:41:06;;;;;;;19.98;15.05;;;;;;;32.44;100.00;100479.39;1708199;82;21129;-88
2021/07/29 09:43:36;;;;;;;18.87;14.55;;;;;;;32.51;100.00;100467.82;1697875;81;21572;-89
2021/07/29 09:46:17;;;;;;;18.15;14.23;;;;;;;32.56;100.00;100469.20;1677505;82;21168;-84
2021/07/29 09:48:45;;;;;;;17.05;14.18;;;;;;;32.56;100.00;100469.20;1642507;85;21093;-87
2021/07/29 09:51:15;;;;;;;26.02;14.83;;;;;;;32.57;100.00;100462.70;1631503;86;21097;-86
2021/07/29 09:53:44;;;;;;;25.82;15.13;;;;;;;32.58;100.00;100461.63;1608363;87;21062;-87
2021/07/29 09:56:13;;;;;;;18.60;13.80;;;;;;;32.65;100.00;100458.14;1646401;84;21098;-87
2021/07/29 09:58:42;;;;;;;27.67;14.73;;;;;;;32.77;100.00;100458.44;1658533;85;21168;-87
2021/07/29 10:01:11;;;;;;;17.62;13.80;;;;;;;32.87;100.00;100461.17;1635416;85;21035;-85
2021/07/29 10:03:44;;;;;;;18.50;14.80;;;;;;;32.96;100.00;100454.69;1658923;83;21090;-86
2021/07/29 10:06:17;;;;;;;25.40;14.75;;;;;;;33.00;100.00;100459.83;1666987;83;21124;-85
2021/07/29 10:08:54;;;;;;;17.80;13.38;;;;;;;33.06;100.00;100457.92;1690712;83;21143;-86
2021/07/29 10:11:24;;;;;;;16.20;12.73;;;;;;;33.13;100.00;100459.28;1681490;84;21026;-89
2021/07/29 10:13:52;;;;;;;19.60;13.85;;;;;;;33.19;96.73;100454.14;1696768;83;21012;-88
2021/07/29 10:16:49;;;;;;;20.80;13.95;;;;;;;33.22;94.57;100453.34;1676724;83;21081;-84
2021/07/29 10:19:17;;;;;;;17.48;13.55;;;;;;;33.12;100.00;100436.08;1715422;82;21133;-87
2021/07/29 10:21:47;;;;;;;23.47;13.80;;;;;;;33.12;100.00;100436.08;1695618;83;21217;-90
2021/07/29 10:24:14;;;;;;;23.00;15.05;;;;;;;33.20;100.00;100440.13;1716284;82;21068;-88
2021/07/29 10:27:10;;;;;;;18.92;13.88;;;;;;;33.28;100.00;100435.53;1689738;83;21022;-87
2021/07/29 10:29:37;;;;;;;20.10;14.93;;;;;;;33.36;100.00;100442.28;1712545;83;21083;-89
2021/07/29 10:32:11;;;;;;;20.85;14.38;;;;;;;33.37;100.00;100439.06;1709785;82;21051;-87
2021/07/29 10:34:39;;;;;;;19.62;14.40;;;;;;;33.37;100.00;100431.77;1705451;83;21134;-91
2021/07/29 10:37:08;;;;;;;18.87;13.18;;;;;;;33.39;100.00;100423.38;1683971;83;21025;-86
2021/07/29 10:39:59;;;;;;;14.93;12.70;;;;;;;33.47;100.00;100416.08;1691868;83;21139;-90
2021/07/29 10:42:29;;;;;;;16.90;13.32;;;;;;;33.57;100.00;100420.11;1719442;82;21112;-88
2021/07/29 10:44:58;;;;;;;18.50;14.30;;;;;;;33.58;100.00;100412.28;1686984;83;21153;-86
2021/07/29 10:47:44;;;;;;;18.80;13.30;;;;;;;33.57;100.00;100409.31;1684760;83;21212;-90
2021/07/29 10:50:12;;;;;;;17.32;13.68;;;;;;;33.58;100.00;100408.23;1691150;83;21100;-88
2021/07/29 10:52:44;;;;;;;18.05;12.78;;;;;;;33.57;99.89;100407.17;1714873;83;21639;-89
2021/07/29 10:55:11;;;;;;;22.85;13.25;;;;;;;33.54;97.18;100401.75;1684628;83;21642;-87
2021/07/29 10:57:39;;;;;;;21.85;14.43;;;;;;;33.59;100.00;100392.31;1734264;82;20946;-87
2021/07/29 11:00:08;;;;;;;15.05;12.23;;;;;;;33.71;98.96;100386.59;1696424;81;22020;-87
2021/07/29 11:02:49;;;;;;;16.82;11.75;;;;;;;33.77;92.61;100371.98;1733535;82;21549;-89
2021/07/29 11:05:26;;;;;;;23.30;12.85;;;;;;;33.70;88.51;100367.43;1728086;81;21830;-87
2021/07/29 11:07:50;;;;;;;22.40;12.10;;;;;;;33.50;89.62;100362.92;1720025;82;21108;-88
2021/07/29 11:10:26;;;;;;;15.43;11.95;;;;;;;33.31;92.05;100364.87;1702875;82;21019;-90
2021/07/29 11:12:54;;;;;;;20.32;12.63;;;;;;;33.13;95.53;100349.27;1676537;83;21093;-90
2021/07/29 11:15:29;;;;;;;22.13;12.20;;;;;;;32.93;96.84;100348.20;1709530;81;21088;-90
2021/07/29 11:18:09;;;;;;;20.10;11.57;;;;;;;32.73;96.24;100340.37;1683611;83;21556;-90
2021/07/29 11:20:36;;;;;;;24.80;13.00;;;;;;;32.58;98.23;100330.95;1667859;82;21073;-89
2021/07/29 11:23:03;;;;;;;25.68;13.05;;;;;;;31.99;100.00;100328.99;1670656;83;21487;-87
2021/07/29 11:25:33;;;;;;;20.17;10.78;;;;;;;31.99;100.00;100328.99;1716348;82;21134;-87
2021/07/29 11:28:12;;;;;;;14.98;10.95;;;;;;;31.55;100.00;100315.37;1712499;83;21018;-86
2021/07/29 11:30:46;;;;;;;19.65;10.70;;;;;;;31.25;100.00;100312.01;1691590;83;21111;-86
2021/07/29 11:33:27;;;;;;;23.50;11.88;;;;;;;31.12;100.00;100311.42;1683515;83;21104;-86
2021/07/29 11:35:56;;;;;;;16.62;12.03;;;;;;;31.02;100.00;100309.15;1641559;83;21093;-86
2021/07/29 11:38:24;;;;;;;18.52;13.10;;;;;;;30.86;100.00;100294.27;1716740;82;21147;-88
2021/07/29 11:41:00;;;;;;;20.05;12.53;;;;;;;30.73;100.00;100299.56;1720583;82;21096;-85
2021/07/29 11:43:33;;;;;;;18.95;13.18;;;;;;;30.61;100.00;100293.58;1657607;85;21991;-88
2021/07/29 11:46:11;;;;;;;24.65;13.32;;;;;;;30.48;100.00;100284.86;1657694;85;21093;-89
2021/07/29 11:48:39;;;;;;;22.50;12.68;;;;;;;30.41;100.00;100295.53;1634185;86;21105;-88
2021/07/29 11:51:16;;;;;;;22.52;13.00;;;;;;;30.33;100.00;100323.65;1683261;83;21108;-88
2021/07/29 11:53:45;;;;;;;19.12;13.28;;;;;;;30.17;100.00;100358.41;1705798;82;21002;-88
2021/07/29 11:56:15;;;;;;;29.30;13.90;;;;;;;29.89;100.00;100387.07;1689163;83;21024;-87
2021/07/29 12:02:50;;;;;;;15.83;5.45;;;;;;;27.64;100.00;100394.49;1717642;82;20946;-88
2021/07/29 12:05:18;;;;;;;15.25;8.23;;;;;;;24.16;100.00;100399.06;1730338;82;21590;-88
2021/07/29 12:07:47;;;;;;;12.15;6.37;;;;;;;22.86;100.00;100435.70;1715510;81;21042;-89
2021/07/29 12:10:21;;;;;;;20.55;8.63;;;;;;;22.47;100.00;100463.77;1700668;82;21111;-90
2021/07/29 16:16:48;;;;;;;12.30;9.50;;;;;;;23.29;100.00;100408.80;1354624;102;22255;-90
2021/07/29 16:19:16;;;;;;;17.90;12.70;;;;;;;23.34;100.00;100411.38;1452646;91;21321;-93
2021/07/29 16:21:49;;;;;;;26.60;12.37;;;;;;;23.37;100.00;100452.95;1700256;80;28262;-88
2021/07/29 16:24:31;;;;;;;;;;;;;;;;;;;;;
2021/07/29 16:27:02;;;;;;;;;;;;;;;;;;;;;
2021/07/29 16:29:23;;;;;;;24.05;11.90;;;;;;;23.35;100.00;100425.77;1755397;79;21011;-88
2021/07/29 16:31:52;;;;;;;17.55;12.45;;;;;;;23.27;100.00;100412.20;1732354;80;21101;-89
2021/07/29 16:34:22;;;;;;;23.10;11.53;;;;;;;23.21;100.00;100393.59;1766962;79;21061;-88
2021/07/29 16:36:50;;;;;;;19.57;10.28;;;;;;;23.17;100.00;100399.80;1749301;79;21053;-90
2021/07/29 16:39:45;;;;;;;;;;;;;;;;;;;;;
2021/07/29 16:42:04;;;;;;;;;;;;;;;;;;;;;
2021/07/29 16:44:43;;;;;;;;;;;;;;;;;;;;;
2021/07/29 16:47:06;;;;;;;13.22;8.88;;;;;;;23.19;100.00;100369.08;1647693;82;21062;-92
2021/07/29 16:49:41;;;;;;;14.80;8.28;;;;;;;23.19;100.00;100361.94;1671753;85;21106;-91
2021/07/29 16:52:22;;;;;;;9.73;8.70;;;;;;;23.18;100.00;100358.98;1765816;80;21081;-91
2021/07/29 16:54:50;;;;;;;13.37;8.70;;;;;;;23.17;100.00;100348.02;1753711;79;21065;-92
2021/07/29 16:57:24;;;;;;;;;;;;;;;23.15;100.00;100340.75;1737711;79;21126;-91
2021/07/29 16:59:53;;;;;;;15.72;8.15;;;;;;;23.13;100.00;100340.97;1763660;79;20223;-89
2021/07/29 17:02:24;;;;;;;18.15;9.68;;;;;;;23.12;100.00;100335.84;1783058;79;21109;-92
2021/07/29 17:04:51;;;;;;;20.27;9.45;;;;;;;23.15;100.00;100339.42;1756213;80;21001;-92
2021/07/29 17:08:07;;;;;;;;;;;;;;;;;;;;;
2021/07/29 17:14:31;;;;;;;21.93;8.60;;;;;;;23.36;100.00;100333.11;1605340;83;21720;-93
2021/07/29 17:17:04;;;;;;;16.63;9.97;;;;;;;23.33;100.00;100338.02;1708021;82;21144;-92
2021/07/29 17:19:35;;;;;;;11.93;9.73;;;;;;;23.33;100.00;100335.36;1753795;80;21503;-90
2021/07/29 17:22:07;;;;;;;15.35;9.53;;;;;;;23.36;100.00;100330.94;1715192;80;21000;-91
2021/07/29 17:24:35;;;;;;;14.33;9.95;;;;;;;23.38;100.00;100334.22;1771183;79;21235;-91
2021/07/29 17:27:03;;;;;;;20.72;9.30;;;;;;;23.38;100.00;100335.05;1774147;79;21007;-92
2021/07/29 17:29:32;;;;;;;11.03;9.20;;;;;;;23.38;100.00;100328.91;1775667;78;21096;-92
2021/07/29 17:32:00;;;;;;;10.00;8.08;;;;;;;23.34;100.00;100339.13;1767166;79;21050;-92
2021/07/29 17:34:27;;;;;;;10.60;8.48;;;;;;;23.24;100.00;100332.92;1801694;78;21092;-90
2021/07/29 17:36:54;;;;;;;11.68;9.00;;;;;;;23.16;100.00;100327.27;1739878;79;21118;-93
2021/07/29 17:39:21;;;;;;;13.05;9.20;;;;;;;23.08;100.00;100331.98;1740774;80;21018;-90
2021/07/29 17:41:54;;;;;;;18.40;9.60;;;;;;;23.06;100.00;100335.34;1755915;80;21187;-92
2021/07/29 17:44:32;;;;;;;16.00;9.80;;;;;;;23.04;100.00;100333.39;1754954;79;21013;-92
2021/07/29 17:46:54;;;;;;;32.30;9.98;;;;;;;23.06;100.00;100339.33;1749975;80;21878;-92
2021/07/29 17:49:22;;;;;;;13.58;9.28;;;;;;;23.05;100.00;100341.67;1756492;78;21587;-91
2021/07/29 17:51:53;;;;;;;25.60;10.85;;;;;;;23.02;100.00;100342.09;1796878;78;21079;-90
2021/07/29 17:54:22;;;;;;;17.48;9.95;;;;;;;23.03;100.00;100350.37;1705351;80;21622;-93
2021/07/29 17:56:53;;;;;;;19.62;10.53;;;;;;;23.07;100.00;100367.02;1749719;81;21101;-93
2021/07/29 17:59:20;;;;;;;10.40;9.30;;;;;;;23.05;100.00;100361.09;1780728;80;21034;-91
2021/07/29 18:01:47;;;;;;;14.33;9.88;;;;;;;22.98;100.00;100357.09;1748243;79;21788;-92
2021/07/29 18:04:16;;;;;;;19.10;10.45;;;;;;;22.94;100.00;100361.69;1789384;79;21041;-90
2021/07/29 18:06:43;;;;;;;37.00;9.78;;;;;;;22.87;100.00;100367.01;1707088;82;21057;-89
2021/07/29 18:09:11;;;;;;;23.00;10.55;;;;;;;22.80;100.00;100356.86;1739354;79;21608;-91
2021/07/29 18:11:38;;;;;;;11.33;9.40;;;;;;;22.76;100.00;100350.34;1745343;79;21113;-89
2021/07/29 18:14:05;;;;;;;25.35;9.83;;;;;;;22.69;100.00;100351.16;1789197;79;21819;-92
2021/07/29 18:16:35;;;;;;;20.43;9.75;;;;;;;22.63;100.00;100344.02;1719559;78;21086;-89
2021/07/29 18:19:08;;;;;;;21.90;9.78;;;;;;;22.59;100.00;100337.98;1760882;80;21642;-92
2021/07/29 18:21:37;;;;;;;10.82;9.63;;;;;;;22.56;100.00;100328.56;1739570;79;21059;-89
2021/07/29 18:24:07;;;;;;;17.92;9.00;;;;;;;22.53;100.00;100332.97;1743748;80;21081;-88
2021/07/29 18:26:36;;;;;;;12.95;10.00;;;;;;;22.52;100.00;100333.45;1774635;80;21933;-91
2021/07/29 18:29:04;;;;;;;10.35;8.85;;;;;;;22.48;100.00;100325.61;1741052;79;21065;-87
2021/07/29 18:31:31;;;;;;;11.57;8.45;;;;;;;22.43;100.00;100322.75;1767456;79;21602;-89
2021/07/29 18:33:58;;;;;;;9.58;8.38;;;;;;;22.39;100.00;100322.83;1767027;79;21010;-90
2021/07/29 18:36:25;;;;;;;11.63;8.75;;;;;;;22.32;100.00;100324.09;1768711;78;21089;-90
2021/07/29 18:38:56;;;;;;;11.60;8.70;;;;;;;22.29;100.00;100326.33;1762078;79;21050;-92
2021/07/29 18:41:26;;;;;;;9.88;8.10;;;;;;;22.27;100.00;100325.22;1715615;80;21068;-89
2021/07/29 18:43:52;;;;;;;10.13;8.50;;;;;;;22.28;100.00;100323.37;1762106;79;21026;-92
2021/07/29 18:46:23;;;;;;;10.05;9.05;;;;;;;22.28;100.00;100327.34;1761034;78;21124;-89
2021/07/29 18:48:50;;;;;;;10.08;9.13;;;;;;;22.29;100.00;100332.96;1770557;79;21084;-91
2021/07/29 18:51:21;;;;;;;11.15;9.13;;;;;;;22.33;100.00;100334.22;1787137;78;21568;-90
2021/07/29 18:54:02;;;;;;;9.78;8.60;;;;;;;22.31;100.00;100326.95;1762113;79;21121;-93
2021/07/29 18:56:32;;;;;;;11.27;8.20;;;;;;;22.09;100.00;100316.98;1775542;78;21124;-88
2021/07/29 18:59:00;;;;;;;10.30;8.15;;;;;;;22.09;100.00;100316.98;1768312;79;21571;-91
2021/07/29 19:01:28;;;;;;;15.40;8.08;;;;;;;22.05;100.00;100329.83;1767862;79;21041;-91
2021/07/29 19:04:00;;;;;;;10.00;8.45;;;;;;;22.03;100.00;100324.73;1795154;79;21365;-90
2021/07/29 19:06:29;;;;;;;14.87;9.68;;;;;;;22.08;100.00;100316.19;1783031;78;21110;-90
2021/07/29 19:09:01;;;;;;;11.53;8.83;;;;;;;22.14;100.00;100318.03;1767355;79;21007;-91
2021/07/29 19:11:32;;;;;;;9.55;8.65;;;;;;;22.17;100.00;100317.65;1779714;79;21654;-89
2021/07/29 19:14:02;;;;;;;10.85;9.05;;;;;;;22.15;100.00;100321.52;1749567;80;21040;-89
2021/07/29 19:16:42;;;;;;;;;;;;;;;;;;;;;
2021/07/29 19:19:06;;;;;;;10.70;9.60;;;;;;;22.07;100.00;100341.05;1730504;79;21577;-92
2021/07/29 19:21:35;;;;;;;17.60;10.43;;;;;;;22.05;100.00;100333.31;1753130;79;21433;-91
2021/07/29 19:24:02;;;;;;;14.68;10.78;;;;;;;22.08;100.00;100335.23;1748215;79;21047;-90
2021/07/29 19:26:29;;;;;;;11.60;10.05;;;;;;;22.12;100.00;100336.48;1755063;79;21019;-91
2021/07/29 19:28:57;;;;;;;13.53;9.83;;;;;;;22.18;100.00;100339.66;1729239;81;21958;-92
2021/07/29 19:32:01;;;;;;;;;;;;;;;;;;;;;
2021/07/29 19:34:10;;;;;;;13.80;9.60;;;;;;;22.25;100.00;100335.20;1720706;79;21518;-91
2021/07/29 19:36:42;;;;;;;10.25;9.00;;;;;;;22.24;100.00;100328.25;1767926;78;21085;-91
2021/07/29 19:39:28;;;;;;;;;;;;;;;;;;;;;
2021/07/29 19:42:14;;;;;;;10.00;8.83;;;;;;;22.21;100.00;100331.33;1741008;78;21602;-91
2021/07/29 19:44:55;;;;;;;;;;;;;;;;;;;;;
2021/07/29 19:47:20;;;;;;;9.85;8.95;;;;;;;22.18;100.00;100333.88;1695129;83;21633;-90
2021/07/29 19:49:57;;;;;;;9.70;8.68;;;;;;;22.21;100.00;100337.95;1766877;78;21093;-92
2021/07/29 19:52:21;;;;;;;11.55;9.15;;;;;;;22.20;100.00;100339.77;1657170;85;21140;-89
2021/07/29 19:54:50;;;;;;;12.37;8.25;;;;;;;22.18;100.00;100330.38;1762788;80;21094;-89
2021/07/29 19:57:17;;;;;;;10.53;9.20;;;;;;;22.18;100.00;100339.66;1778317;78;21080;-91
2021/07/29 19:59:45;;;;;;;9.93;8.98;;;;;;;22.20;100.00;100332.34;1769592;79;21067;-91
2021/07/29 20:02:12;;;;;;;11.05;8.95;;;;;;;22.20;100.00;100327.03;1767291;78;21116;-88
2021/07/29 20:04:39;;;;;;;10.00;8.95;;;;;;;22.19;100.00;100319.56;1743930;79;21033;-90
2021/07/29 20:07:08;;;;;;;11.85;9.45;;;;;;;22.17;100.00;100324.77;1751915;80;21735;-93
2021/07/29 20:09:36;;;;;;;14.78;8.33;;;;;;;22.18;100.00;100327.73;1745183;80;21061;-89
2021/07/29 20:12:04;;;;;;;13.08;8.23;;;;;;;22.13;100.00;100320.89;1751804;80;21039;-90
2021/07/29 20:14:33;;;;;;;10.55;7.53;;;;;;;22.08;100.00;100317.52;1778605;79;21073;-89
2021/07/29 20:17:02;;;;;;;12.15;7.22;;;;;;;22.01;100.00;100307.39;1785369;79;21070;-89
2021/07/29 20:19:29;;;;;;;19.05;6.87;;;;;;;21.96;100.00;100307.16;1743885;80;21350;-91
2021/07/29 20:21:56;;;;;;;13.25;6.83;;;;;;;21.93;100.00;100297.77;1745469;80;20943;-92
2021/07/29 20:24:23;;;;;;;9.10;6.70;;;;;;;21.94;100.00;100300.73;1751920;80;21132;-92
2021/07/29 20:26:51;;;;;;;10.43;6.78;;;;;;;;;;1781909;79;21052;-91
2021/07/29 20:29:18;;;;;;;7.40;6.67;;;;;;;21.92;100.00;100302.76;1749812;80;21061;-91
2021/07/29 20:31:45;;;;;;;11.83;6.50;;;;;;;21.90;100.00;100303.48;1752255;80;22011;-94
2021/07/29 20:34:14;;;;;;;11.83;5.95;;;;;;;21.88;100.00;100289.08;1749801;80;21107;-90
2021/07/29 20:36:41;;;;;;;13.18;6.30;;;;;;;21.87;100.00;100295.91;1787714;80;20998;-93
2021/07/29 20:39:09;;;;;;;10.68;6.75;;;;;;;21.84;100.00;100294.48;1752371;80;20968;-90
2021/07/29 20:41:37;;;;;;;9.75;6.10;;;;;;;21.86;100.00;100298.25;1752549;80;20988;-91
2021/07/29 20:44:07;;;;;;;8.35;6.37;;;;;;;21.89;100.00;100292.57;1752540;80;21370;-91
2021/07/29 20:46:35;;;;;;;7.12;6.28;;;;;;;21.98;100.00;100296.69;1752469;80;21082;-91
2021/07/29 20:49:04;;;;;;;10.43;5.90;;;;;;;22.03;100.00;100292.12;1752361;80;21561;-92
2021/07/29 20:51:32;;;;;;;16.62;7.00;;;;;;;22.02;100.00;100293.93;1751748;80;21566;-90
2021/07/29 20:53:59;;;;;;;10.08;6.80;;;;;;;22.00;100.00;100289.33;1753736;80;21102;-92
2021/07/29 20:56:27;;;;;;;17.35;6.97;;;;;;;22.04;100.00;100299.03;1752238;80;21097;-93
2021/07/29 20:58:54;;;;;;;9.30;6.87;;;;;;;22.11;100.00;100299.06;1747949;80;21040;-90
2021/07/29 21:01:21;;;;;;;8.28;6.42;;;;;;;22.14;100.00;100300.00;1742359;80;21100;-90
2021/07/29 21:03:49;;;;;;;8.60;6.28;;;;;;;22.13;100.00;100291.73;1742361;80;21075;-92
2021/07/29 21:06:16;;;;;;;13.18;6.10;;;;;;;22.05;100.00;100304.16;1742496;80;21126;-91
2021/07/29 21:08:43;;;;;;;9.05;6.45;;;;;;;22.04;100.00;100304.33;1736192;79;21147;-90
2021/07/29 21:11:10;;;;;;;12.55;7.05;;;;;;;22.00;100.00;100295.16;1722747;79;21798;-91
2021/07/29 21:13:38;;;;;;;9.75;7.58;;;;;;;21.91;100.00;100293.20;1722358;79;21103;-90
2021/07/29 21:16:05;;;;;;;9.68;7.90;;;;;;;21.85;100.00;100278.06;1756752;79;21082;-90
2021/07/29 21:18:32;;;;;;;12.85;8.83;;;;;;;21.80;100.00;100268.58;1722166;79;21121;-92
2021/07/29 21:21:09;;;;;;;13.13;8.45;;;;;;;21.77;100.00;100266.31;1755509;79;21075;-91
2021/07/29 21:23:34;;;;;;;11.63;9.33;;;;;;;21.74;100.00;100263.06;1719703;80;21000;-92
2021/07/29 21:26:04;;;;;;;11.70;9.48;;;;;;;21.74;100.00;100243.68;1756753;79;21122;-93
2021/07/29 21:28:34;;;;;;;11.10;8.93;;;;;;;21.76;100.00;100248.28;1721899;81;20984;-93
2021/07/29 21:31:03;;;;;;;14.53;8.55;;;;;;;21.77;100.00;100251.25;1754673;81;21020;-92
2021/07/29 21:33:43;;;;;;;;;;;;;;;;;;;;;
2021/07/29 21:36:15;;;;;;;11.45;8.43;;;;;;;21.92;100.00;100243.13;1719571;81;21494;-93
2021/07/29 21:38:46;;;;;;;10.78;8.00;;;;;;;22.06;100.00;100239.52;1720048;81;21154;-93
2021/07/29 21:41:15;;;;;;;14.53;8.55;;;;;;;22.13;100.00;100237.37;1741573;81;21102;-91
2021/07/29 21:43:42;;;;;;;14.35;8.70;;;;;;;22.13;100.00;100234.20;1720890;81;21110;-92
2021/07/29 21:46:09;;;;;;;10.53;8.88;;;;;;;22.14;100.00;100244.32;1721372;81;21353;-91
2021/07/29 21:48:36;;;;;;;12.20;8.53;;;;;;;22.15;100.00;100240.66;1724968;80;22264;-93
2021/07/29 21:51:06;;;;;;;13.32;8.60;;;;;;;22.18;100.00;100246.86;1742478;80;21067;-93
2021/07/29 21:53:38;;;;;;;12.07;8.63;;;;;;;22.18;100.00;100244.21;1725973;80;21104;-91
2021/07/29 21:56:06;;;;;;;11.00;9.35;;;;;;;22.16;100.00;100243.59;1751359;80;20990;-90
2021/07/29 21:58:33;;;;;;;11.65;9.45;;;;;;;22.14;100.00;100235.84;1727830;79;21762;-91
2021/07/29 22:01:00;;;;;;;12.68;10.08;;;;;;;22.15;100.00;100234.03;1733678;80;21071;-93
2021/07/29 22:03:28;;;;;;;12.68;9.18;;;;;;;22.15;100.00;100241.98;1747096;80;21452;-91
2021/07/29 22:05:56;;;;;;;15.32;9.98;;;;;;;22.18;100.00;100240.23;1748595;80;21007;-92
2021/07/29 22:08:33;;;;;;;;;;;;;;;;;;;;;
2021/07/29 22:10:55;;;;;;;15.98;10.98;;;;;;;22.21;100.00;100249.12;1721837;80;21091;-91